createdAt,value
2019-05-30T00:02:54.405Z,96169.47
2019-05-30T00:05:23.016Z,96173.92
2019-05-30T00:16:39.871Z,96180.72
2019-05-30T00:19:19.343Z,96183.02
2019-05-30T00:27:59.165Z,96184.54
2019-05-30T00:30:26.754Z,96188.60
2019-05-30T00:32:54.678Z,96186.45
2019-05-30T00:35:25.721Z,96185.92
2019-05-30T00:37:53.628Z,96187.59
2019-05-30T00:40:42.776Z,96185.95
2019-05-30T00:43:35.559Z,96181.95
2019-05-30T00:46:06.261Z,96184.90
2019-05-30T00:48:43.666Z,96185.81
2019-05-30T00:51:12.535Z,96184.02
2019-05-30T00:53:40.457Z,96181.09
2019-05-30T00:59:26.162Z,96180.98
2019-05-30T01:01:54.978Z,96181.27
2019-05-30T01:04:28.861Z,96180.41
2019-05-30T01:06:56.959Z,96180.14
2019-05-30T01:09:44.007Z,96175.64
2019-05-30T01:12:11.947Z,96177.11
2019-05-30T01:14:40.798Z,96176.83
2019-05-30T01:17:08.733Z,96177.45
2019-05-30T01:19:47.373Z,96177.72
2019-05-30T01:22:16.204Z,96171.30
2019-05-30T01:24:45.117Z,96179.33
2019-05-30T01:27:13.036Z,96170.34
2019-05-30T01:29:55.019Z,96171.22
2019-05-30T01:32:28.471Z,96173.23
2019-05-30T01:35:08.086Z,96173.08
2019-05-30T01:40:53.377Z,96173.73
2019-05-30T01:43:21.291Z,96169.66
2019-05-30T01:45:50.102Z,96169.13
2019-05-30T01:48:29.113Z,96168.69
2019-05-30T01:50:58.326Z,96172.03
2019-05-30T01:53:28.854Z,96173.70
2019-05-30T01:55:56.751Z,96171.32
2019-05-30T01:58:48.336Z,96175.16
2019-05-30T02:01:25.108Z,96173.58
2019-05-30T02:03:47.209Z,96171.25
2019-05-30T02:06:38.032Z,96169.33
2019-05-30T02:09:03.304Z,96172.34
2019-05-30T02:11:44.089Z,96176.23
2019-05-30T02:14:12.906Z,96180.25
2019-05-30T02:16:50.666Z,96179.31
2019-05-30T02:19:20.498Z,96181.37
2019-05-30T02:28:00.060Z,96185.12
2019-05-30T02:30:27.310Z,96186.41
2019-05-30T02:33:00.657Z,96186.06
2019-05-30T02:35:28.274Z,96183.75
2019-05-30T02:37:57.094Z,96183.91
2019-05-30T02:40:24.994Z,96180.09
2019-05-30T02:42:52.931Z,96180.27
2019-05-30T02:45:20.834Z,96186.14
2019-05-30T02:48:12.616Z,96185.28
2019-05-30T02:50:41.257Z,96188.59
2019-05-30T02:53:19.677Z,96187.27
2019-05-30T02:56:06.416Z,96185.36
2019-05-30T02:58:34.002Z,96183.20
2019-05-30T03:01:09.122Z,96182.94
2019-05-30T03:03:35.943Z,96189.98
2019-05-30T03:06:20.358Z,96194.31
2019-05-30T03:08:53.677Z,96198.80
2019-05-30T03:11:21.601Z,96200.95
2019-05-30T03:16:48.932Z,96203.08
2019-05-30T03:19:16.854Z,96205.45
2019-05-30T03:21:53.007Z,96204.70
2019-05-30T03:24:20.920Z,96208.77
2019-05-30T03:26:53.490Z,96211.95
2019-05-30T03:29:21.405Z,96214.64
2019-05-30T03:31:55.702Z,96211.34
2019-05-30T03:34:28.287Z,96210.44
2019-05-30T03:48:45.168Z,96223.55
2019-05-30T03:51:16.080Z,96224.61
2019-05-30T03:53:52.372Z,96224.18
2019-05-30T03:56:21.185Z,96226.02
2019-05-30T03:58:57.919Z,96226.88
2019-05-30T04:04:24.879Z,96236.14
2019-05-30T04:06:54.527Z,96236.42
2019-05-30T04:09:25.628Z,96240.89
2019-05-30T04:14:52.429Z,96240.48
2019-05-30T04:17:42.988Z,96241.27
2019-05-30T04:20:22.450Z,96244.56
2019-05-30T04:22:46.385Z,96249.91
2019-05-30T04:25:20.072Z,96248.93
2019-05-30T04:27:47.989Z,96257.36
2019-05-30T04:30:38.988Z,96260.59
2019-05-30T04:33:22.569Z,96266.73
2019-05-30T04:35:44.567Z,96261.75
2019-05-30T04:38:12.793Z,96266.39
2019-05-30T04:40:52.043Z,96268.05
2019-05-30T04:43:20.392Z,96274.84
2019-05-30T04:46:04.887Z,96269.98
2019-05-30T04:48:37.288Z,96266.31
2019-05-30T04:51:06.116Z,96267.08
2019-05-30T04:59:36.772Z,96274.81
2019-05-30T05:02:05.588Z,96269.80
2019-05-30T05:04:48.687Z,96279.27
2019-05-30T05:07:17.851Z,96276.44
2019-05-30T05:09:50.762Z,96277.84
2019-05-30T05:12:18.670Z,96284.70
2019-05-30T05:15:04.726Z,96278.62
2019-05-30T05:17:38.153Z,96281.45
2019-05-30T05:20:06.844Z,96292.73
2019-05-30T05:22:34.748Z,96289.03
2019-05-30T05:25:07.780Z,96289.02
2019-05-30T05:27:36.618Z,96287.08
2019-05-30T05:30:06.019Z,96289.40
2019-05-30T05:35:51.113Z,96287.27
2019-05-30T05:38:20.077Z,96289.78
2019-05-30T05:40:58.269Z,96286.45
2019-05-30T05:43:29.434Z,96287.03
2019-05-30T05:46:04.860Z,96291.95
2019-05-30T05:48:39.430Z,96295.36
2019-05-30T05:51:07.373Z,96296.06
2019-05-30T05:53:40.955Z,96300.86
2019-05-30T05:56:09.302Z,96298.10
2019-05-30T05:58:49.893Z,96302.45
2019-05-30T06:01:19.400Z,96296.17
2019-05-30T06:03:50.361Z,96301.08
2019-05-30T06:06:19.199Z,96301.98
2019-05-30T06:09:04.700Z,96303.67
2019-05-30T06:11:54.014Z,96306.25
2019-05-30T06:14:21.995Z,96304.36
2019-05-30T06:16:56.031Z,96308.48
2019-05-30T06:19:23.420Z,96304.25
2019-05-30T06:21:54.228Z,96308.35
2019-05-30T06:24:31.488Z,96307.98
2019-05-30T06:27:20.145Z,96312.23
2019-05-30T06:29:48.380Z,96311.71
2019-05-30T06:32:22.908Z,96316.02
2019-05-30T06:34:50.868Z,96313.84
2019-05-30T06:37:19.296Z,96316.27
2019-05-30T06:39:47.572Z,96312.89
2019-05-30T06:42:35.190Z,96310.80
2019-05-30T06:47:39.803Z,96318.38
2019-05-30T06:52:45.984Z,96318.59
2019-05-30T06:55:16.261Z,96318.31
2019-05-30T06:57:44.661Z,96321.30
2019-05-30T07:00:13.033Z,96319.90
2019-05-30T07:02:41.496Z,96320.06
2019-05-30T07:05:16.276Z,96318.97
2019-05-30T07:07:44.118Z,96316.97
2019-05-30T07:12:50.590Z,96322.34
2019-05-30T07:15:23.369Z,96328.48
2019-05-30T07:17:51.760Z,96321.52
2019-05-30T07:22:59.255Z,96330.27
2019-05-30T07:28:04.772Z,96330.58
2019-05-30T07:30:36.483Z,96335.10
2019-05-30T07:33:05.762Z,96337.20
2019-05-30T07:35:34.198Z,96339.52
2019-05-30T07:38:09.607Z,96340.78
2019-05-30T07:40:37.971Z,96343.41
2019-05-30T07:45:57.401Z,96343.53
2019-05-30T07:48:32.397Z,96344.50
2019-05-30T07:50:59.981Z,96351.42
2019-05-30T07:53:35.784Z,96350.81
2019-05-30T07:58:40.413Z,96348.31
2019-05-30T08:01:15.550Z,96347.30
2019-05-30T08:03:43.985Z,96353.41
2019-05-30T08:06:12.340Z,96352.88
2019-05-30T08:08:49.196Z,96351.39
2019-05-30T08:11:21.230Z,96349.86
2019-05-30T08:13:49.589Z,96347.14
2019-05-30T08:16:18.890Z,96350.19
2019-05-30T08:18:47.267Z,96353.61
2019-05-30T08:21:15.704Z,96348.98
2019-05-30T08:23:44.093Z,96354.38
2019-05-30T08:26:12.452Z,96354.76
2019-05-30T08:28:53.079Z,96353.42
2019-05-30T08:31:22.092Z,96353.30
2019-05-30T08:36:32.621Z,96359.52
2019-05-30T08:39:06.431Z,96361.14
2019-05-30T08:41:39.520Z,96359.19
2019-05-30T08:44:06.870Z,96357.58
2019-05-30T08:46:35.848Z,96353.02
2019-05-30T08:49:03.593Z,96353.00
2019-05-30T08:51:41.731Z,96353.73
2019-05-30T08:54:13.937Z,96353.83
2019-05-30T08:56:52.596Z,96357.86
2019-05-30T08:59:21.927Z,96351.95
2019-05-30T09:02:00.473Z,96354.75
2019-05-30T09:07:05.257Z,96349.55
2019-05-30T09:12:08.872Z,96355.45
2019-05-30T09:14:39.298Z,96355.66
2019-05-30T09:17:06.512Z,96354.16
2019-05-30T09:19:37.925Z,96352.39
2019-05-30T09:22:04.057Z,96351.03
2019-05-30T09:24:33.355Z,96352.41
2019-05-30T09:27:07.037Z,96345.84
2019-05-30T09:29:38.091Z,96344.41
2019-05-30T09:34:43.207Z,96337.36
2019-05-30T09:37:10.377Z,96338.20
2019-05-30T09:39:43.404Z,96336.55
2019-05-30T09:42:11.376Z,96332.88
2019-05-30T09:44:41.913Z,96336.59
2019-05-30T09:47:09.892Z,96336.99
2019-05-30T09:49:41.896Z,96338.86
2019-05-30T09:52:09.660Z,96338.38
2019-05-30T09:54:38.025Z,96335.20
2019-05-30T09:57:07.334Z,96334.23
2019-05-30T09:59:36.647Z,96335.94
2019-05-30T10:02:04.979Z,96335.73
2019-05-30T10:04:33.356Z,96331.69
2019-05-30T10:07:02.664Z,96323.56
2019-05-30T10:09:31.930Z,96327.39
2019-05-30T10:12:02.336Z,96329.75
2019-05-30T10:14:30.684Z,96328.61
2019-05-30T10:16:59.036Z,96325.25
2019-05-30T10:19:27.422Z,96323.75
2019-05-30T10:21:57.259Z,96316.67
2019-05-30T10:24:25.141Z,96317.61
2019-05-30T10:26:59.088Z,96318.46
2019-05-30T10:29:27.460Z,96319.48
2019-05-30T10:31:57.756Z,96320.47
2019-05-30T10:34:27.877Z,96320.30
2019-05-30T10:37:00.620Z,96313.01
2019-05-30T10:39:37.096Z,96316.89
2019-05-30T10:42:05.482Z,96315.67
2019-05-30T10:49:51.395Z,96308.17
2019-05-30T10:52:19.623Z,96305.70
2019-05-30T10:54:51.394Z,96302.20
2019-05-30T10:57:19.369Z,96306.83
2019-05-30T10:59:50.851Z,96304.22
2019-05-30T11:02:19.934Z,96301.92
2019-05-30T11:04:50.697Z,96299.86
2019-05-30T11:07:52.790Z,96298.03
2019-05-30T11:10:11.706Z,96294.42
2019-05-30T11:12:40.312Z,96293.39
2019-05-30T11:15:08.695Z,96288.88
2019-05-30T11:17:37.112Z,96289.06
2019-05-30T11:20:05.484Z,96293.22
2019-05-30T11:22:33.867Z,96294.11
2019-05-30T11:25:02.266Z,96291.27
2019-05-30T11:27:30.653Z,96290.53
2019-05-30T11:29:59.070Z,96287.83
2019-05-30T11:32:37.736Z,96295.41
2019-05-30T11:35:06.098Z,96290.86
2019-05-30T11:40:25.089Z,96287.97
2019-05-30T11:42:53.477Z,96290.91
2019-05-30T11:45:21.806Z,96291.99
2019-05-30T11:47:51.450Z,96285.16
2019-05-30T11:50:18.897Z,96282.24
2019-05-30T11:52:47.258Z,96280.75
2019-05-30T11:55:19.251Z,96276.14
2019-05-30T11:57:51.971Z,96275.59
2019-05-30T12:00:19.186Z,96274.80
2019-05-30T12:05:38.660Z,96271.36
2019-05-30T12:08:07.034Z,96269.88
2019-05-30T12:13:31.006Z,96262.19
2019-05-30T12:15:59.709Z,96251.88
2019-05-30T12:18:28.625Z,96261.97
2019-05-30T12:20:57.770Z,96254.88
2019-05-30T12:23:35.269Z,96261.75
2019-05-30T12:26:12.013Z,96258.86
2019-05-30T12:28:40.362Z,96256.03
2019-05-30T12:33:49.156Z,96251.90
2019-05-30T12:38:54.310Z,96253.27
2019-05-30T12:46:41.533Z,96237.97
2019-05-30T12:51:46.111Z,96255.78
2019-05-30T12:54:21.554Z,96257.62
2019-05-30T12:56:49.926Z,96255.31
2019-05-30T12:59:23.121Z,96252.97
2019-05-30T13:01:51.484Z,96252.34
2019-05-30T13:04:21.481Z,96254.44
2019-05-30T13:06:53.842Z,96245.90
2019-05-30T13:09:25.644Z,96242.54
2019-05-30T13:11:54.297Z,96241.69
2019-05-30T13:14:23.444Z,96242.96
2019-05-30T13:16:52.714Z,96241.08
2019-05-30T13:19:22.010Z,96247.91
2019-05-30T13:21:53.641Z,96240.67
2019-05-30T13:24:19.644Z,96240.22
2019-05-30T13:26:48.011Z,96243.61
2019-05-30T13:29:28.193Z,96235.56
2019-05-30T13:31:56.566Z,96236.97
2019-05-30T13:37:10.245Z,96238.75
2019-05-30T13:42:18.882Z,96238.16
2019-05-30T13:44:47.258Z,96237.53
2019-05-30T13:47:15.630Z,96238.70
2019-05-30T13:49:44.011Z,96232.06
2019-05-30T13:52:23.377Z,96232.92
2019-05-30T13:54:51.721Z,96236.12
2019-05-30T13:59:56.388Z,96235.44
2019-05-30T14:02:30.201Z,96236.03
2019-05-30T14:04:59.911Z,96233.70
2019-05-30T14:07:27.828Z,96232.12
2019-05-30T14:09:56.193Z,96224.22
2019-05-30T14:12:24.552Z,96225.66
2019-05-30T14:14:52.904Z,96226.30
2019-05-30T14:19:57.688Z,96226.52
2019-05-30T14:25:16.807Z,96227.28
2019-05-30T14:27:45.108Z,96225.27
2019-05-30T14:30:13.482Z,96228.89
2019-05-30T14:32:42.749Z,96230.31
2019-05-30T14:35:38.054Z,96236.91
2019-05-30T14:38:10.746Z,96242.86
2019-05-30T14:40:39.845Z,96237.17
2019-05-30T14:43:09.263Z,96242.23
2019-05-30T14:45:37.696Z,96233.98
2019-05-30T14:48:06.439Z,96236.34
2019-05-30T14:50:34.535Z,96233.67
2019-05-30T14:53:08.827Z,96241.63
2019-05-30T14:55:36.661Z,96244.38
2019-05-30T14:58:09.150Z,96247.02
2019-05-30T15:00:40.194Z,96239.98
2019-05-30T15:03:12.737Z,96237.44
2019-05-30T15:05:40.145Z,96238.82
2019-05-30T15:08:10.543Z,96241.77
2019-05-30T15:10:39.757Z,96239.11
2019-05-30T15:13:17.987Z,96237.79
2019-05-30T15:15:46.341Z,96242.61
2019-05-30T15:18:17.419Z,96240.62
2019-05-30T15:20:45.911Z,96243.70
2019-05-30T15:23:18.690Z,96236.91
2019-05-30T15:25:47.724Z,96236.95
2019-05-30T15:28:28.870Z,96232.25
2019-05-30T15:30:57.219Z,96231.10
2019-05-30T15:36:03.858Z,96235.23
2019-05-30T15:38:39.354Z,96229.66
2019-05-30T15:41:13.284Z,96224.25
2019-05-30T15:43:41.650Z,96224.98
2019-05-30T15:48:48.350Z,96234.48
2019-05-30T15:51:27.549Z,96235.95
2019-05-30T15:53:56.493Z,96231.45
2019-05-30T15:56:30.792Z,96231.19
2019-05-30T16:01:44.408Z,96227.83
2019-05-30T16:04:12.781Z,96218.45
2019-05-30T16:06:41.131Z,96222.05
2019-05-30T16:09:10.652Z,96223.95
2019-05-30T16:11:39.641Z,96228.35
2019-05-30T16:16:47.366Z,96228.49
2019-05-30T16:21:52.099Z,96222.38
2019-05-30T16:26:57.700Z,96217.38
2019-05-30T16:29:26.100Z,96225.78
2019-05-30T16:31:54.417Z,96224.95
2019-05-30T16:34:26.718Z,96218.81
2019-05-30T16:36:55.076Z,96216.66
2019-05-30T16:42:04.531Z,96218.41
2019-05-30T16:44:37.351Z,96215.50
2019-05-30T16:47:06.623Z,96217.85
2019-05-30T16:49:34.981Z,96219.95
2019-05-30T16:52:08.761Z,96215.39
2019-05-30T16:54:39.128Z,96219.36
2019-05-30T16:59:45.525Z,96218.17
2019-05-30T17:02:18.760Z,96221.45
2019-05-30T17:04:46.041Z,96223.52
2019-05-30T17:07:17.324Z,96224.53
2019-05-30T17:09:45.690Z,96225.75
2019-05-30T17:14:54.394Z,96227.42
2019-05-30T17:17:41.787Z,96232.50
2019-05-30T17:20:38.449Z,96230.80
2019-05-30T17:23:08.723Z,96234.86
2019-05-30T17:25:40.510Z,96237.45
2019-05-30T17:28:27.748Z,96235.24
2019-05-30T17:30:56.103Z,96242.00
2019-05-30T17:33:34.943Z,96237.71
2019-05-30T17:36:10.051Z,96235.95
2019-05-30T17:38:43.203Z,96236.59
2019-05-30T17:44:11.505Z,96237.67
2019-05-30T17:46:39.870Z,96238.23
2019-05-30T17:49:08.226Z,96239.57
2019-05-30T17:51:37.478Z,96245.11
2019-05-30T17:54:16.339Z,96245.86
2019-05-30T17:56:44.689Z,96244.81
2019-05-30T17:59:39.043Z,96249.02
2019-05-30T18:02:16.084Z,96249.28
2019-05-30T18:04:44.456Z,96252.80
2019-05-30T18:09:49.101Z,96260.38
2019-05-30T18:14:53.783Z,96251.94
2019-05-30T18:17:23.169Z,96255.05
2019-05-30T18:19:51.413Z,96257.97
2019-05-30T18:22:37.984Z,96254.80
2019-05-30T18:25:08.273Z,96259.73
2019-05-30T18:30:18.614Z,96261.11
2019-05-30T18:32:48.892Z,96264.09
2019-05-30T18:35:18.201Z,96264.52
2019-05-30T18:37:46.574Z,96262.98
2019-05-30T18:40:36.025Z,96265.00
2019-05-30T18:43:07.863Z,96268.66
2019-05-30T18:48:25.323Z,96265.17
2019-05-30T18:50:53.650Z,96266.25
2019-05-30T18:53:33.666Z,96266.50
2019-05-30T18:56:02.027Z,96269.40
2019-05-30T18:58:40.124Z,96267.17
2019-05-30T19:01:09.494Z,96267.84
2019-05-30T19:03:38.853Z,96270.98
2019-05-30T19:06:13.644Z,96270.79
2019-05-30T19:08:47.657Z,96274.04
2019-05-30T19:11:34.938Z,96277.85
2019-05-30T19:14:03.529Z,96280.95
2019-05-30T19:16:32.833Z,96277.73
2019-05-30T19:19:18.572Z,96285.83
2019-05-30T19:21:46.939Z,96289.89
2019-05-30T19:26:54.478Z,96291.58
2019-05-30T19:29:24.746Z,96297.50
2019-05-30T19:31:54.046Z,96303.92
2019-05-30T19:34:22.485Z,96303.13
2019-05-30T19:36:51.733Z,96305.65
2019-05-30T19:42:03.363Z,96308.59
2019-05-30T19:44:32.003Z,96310.13
2019-05-30T19:47:11.826Z,96308.26
2019-05-30T19:49:40.168Z,96311.87
2019-05-30T19:52:21.044Z,96316.99
2019-05-30T19:54:49.500Z,96321.53
2019-05-30T19:57:18.807Z,96320.79
2019-05-30T19:59:48.065Z,96320.73
2019-05-30T20:05:17.917Z,96323.36
2019-05-30T20:07:46.300Z,96324.67
2019-05-30T20:10:18.411Z,96327.52
2019-05-30T20:12:47.624Z,96330.17
2019-05-30T20:15:33.305Z,96331.72
2019-05-30T20:18:01.021Z,96332.05
2019-05-30T20:20:49.372Z,96339.33
2019-05-30T20:23:02.057Z,96338.45
2019-05-30T20:25:32.580Z,96342.57
2019-05-30T20:27:59.705Z,96348.80
2019-05-30T20:30:28.071Z,96339.38
2019-05-30T20:35:59.244Z,96339.28
2019-05-30T20:41:05.822Z,96345.34
2019-05-30T20:43:37.526Z,96350.14
2019-05-30T20:46:20.310Z,96351.38
2019-05-30T20:48:45.047Z,96354.27
2019-05-30T20:51:20.877Z,96350.55
2019-05-30T20:53:41.330Z,96351.00
2019-05-30T20:56:09.674Z,96356.02
2019-05-30T20:58:55.663Z,96350.48
2019-05-30T21:01:29.963Z,96352.87
2019-05-30T21:04:01.935Z,96356.16
2019-05-30T21:06:30.312Z,96360.67
2019-05-30T21:09:01.657Z,96357.01
2019-05-30T21:11:33.367Z,96357.77
2019-05-30T21:14:01.719Z,96357.81
2019-05-30T21:16:33.270Z,96358.48
2019-05-30T21:21:37.962Z,96359.20
2019-05-30T21:24:28.863Z,96359.12
2019-05-30T21:29:38.866Z,96360.45
2019-05-30T21:32:10.435Z,96357.63
2019-05-30T21:34:39.871Z,96357.36
2019-05-30T21:37:17.679Z,96360.06
2019-05-30T21:39:48.120Z,96355.93
2019-05-30T21:42:26.173Z,96354.23
2019-05-30T21:44:54.506Z,96354.70
2019-05-30T21:50:05.065Z,96352.44
2019-05-30T21:52:33.393Z,96352.84
2019-05-30T21:55:03.368Z,96350.08
2019-05-30T21:57:30.124Z,96354.09
2019-05-30T22:00:11.110Z,96350.76
2019-05-30T22:02:40.321Z,96350.97
2019-05-30T22:07:45.036Z,96349.37
2019-05-30T22:10:17.338Z,96349.83
2019-05-30T22:12:45.684Z,96350.75
2019-05-30T22:15:23.929Z,96352.80
2019-05-30T22:20:39.562Z,96350.17
2019-05-30T22:23:14.999Z,96351.34
2019-05-30T22:25:44.197Z,96350.86
2019-05-30T22:28:26.333Z,96347.41
2019-05-30T22:31:13.091Z,96346.19
2019-05-30T22:33:42.659Z,96342.56
2019-05-30T22:36:13.595Z,96339.20
2019-05-30T22:38:43.212Z,96345.30
2019-05-30T22:41:15.236Z,96348.01
2019-05-30T22:43:43.872Z,96345.34
2019-05-30T22:46:11.956Z,96347.91
2019-05-30T22:48:40.311Z,96349.86
2019-05-30T22:56:27.124Z,96355.22
2019-05-30T22:58:55.806Z,96349.64
2019-05-30T23:01:28.697Z,96346.48
2019-05-30T23:03:57.603Z,96349.78
2019-05-30T23:06:27.337Z,96351.16
2019-05-30T23:08:59.245Z,96350.53
2019-05-30T23:11:27.648Z,96355.59
2019-05-30T23:13:56.278Z,96359.89
2019-05-30T23:16:24.407Z,96353.48
2019-05-30T23:18:52.760Z,96355.60
2019-05-30T23:21:46.800Z,96352.81
2019-05-30T23:26:51.761Z,96353.95
2019-05-30T23:32:00.724Z,96351.19
2019-05-30T23:34:56.387Z,96351.55
2019-05-30T23:37:26.280Z,96341.87
2019-05-30T23:40:00.652Z,96340.04
2019-05-30T23:45:09.254Z,96338.09
2019-05-30T23:47:37.613Z,96332.66
2019-05-30T23:50:06.741Z,96334.41
2019-05-30T23:52:41.539Z,96332.59
2019-05-30T23:55:09.896Z,96332.52
2019-05-30T23:57:43.534Z,96328.16
